sensor_id;sensor_type;location;lat;lon;timestamp;temperature;humidity
52323;DHT22;38263;52.920;6.238;2023-06-10T00:06:34;18.10;99.90
52323;DHT22;38263;52.920;6.238;2023-06-10T00:09:03;18.30;99.90
52323;DHT22;38263;52.920;6.238;2023-06-10T00:18:54;18.00;99.90
52323;DHT22;38263;52.920;6.238;2023-06-10T00:21:30;18.00;99.90
52323;DHT22;38263;52.920;6.238;2023-06-10T00:24:03;17.90;99.90
52323;DHT22;38263;52.920;6.238;2023-06-10T00:38:40;17.90;99.90
52323;DHT22;38263;52.920;6.238;2023-06-10T00:43:33;17.70;99.90
52323;DHT22;38263;52.920;6.238;2023-06-10T00:48:25;17.60;99.90
52323;DHT22;38263;52.920;6.238;2023-06-10T00:53:18;17.80;99.90
52323;DHT22;38263;52.920;6.238;2023-06-10T00:55:44;17.60;99.90
52323;DHT22;38263;52.920;6.238;2023-06-10T00:58:10;17.50;99.90
52323;DHT22;38263;52.920;6.238;2023-06-10T01:00:36;17.60;99.90
52323;DHT22;38263;52.920;6.238;2023-06-10T01:03:02;17.90;99.90
52323;DHT22;38263;52.920;6.238;2023-06-10T01:05:34;17.50;99.90
52323;DHT22;38263;52.920;6.238;2023-06-10T01:10:53;17.40;99.90
52323;DHT22;38263;52.920;6.238;2023-06-10T01:13:22;17.40;99.90
52323;DHT22;38263;52.920;6.238;2023-06-10T01:15:50;17.30;99.90
52323;DHT22;38263;52.920;6.238;2023-06-10T01:18:17;17.50;99.90
52323;DHT22;38263;52.920;6.238;2023-06-10T01:23:10;17.50;99.90
52323;DHT22;38263;52.920;6.238;2023-06-10T01:28:12;17.40;99.90
52323;DHT22;38263;52.920;6.238;2023-06-10T01:33:17;17.20;99.90
52323;DHT22;38263;52.920;6.238;2023-06-10T01:35:44;17.10;99.90
52323;DHT22;38263;52.920;6.238;2023-06-10T01:38:13;17.30;99.90
52323;DHT22;38263;52.920;6.238;2023-06-10T01:40:40;17.20;99.90
52323;DHT22;38263;52.920;6.238;2023-06-10T02:24:35;16.60;99.90
52323;DHT22;38263;52.920;6.238;2023-06-10T02:34:21;16.70;99.90
52323;DHT22;38263;52.920;6.238;2023-06-10T02:39:16;16.60;99.90
52323;DHT22;38263;52.920;6.238;2023-06-10T02:53:52;16.30;99.90
52323;DHT22;38263;52.920;6.238;2023-06-10T03:40:12;16.00;99.90
52323;DHT22;38263;52.920;6.238;2023-06-10T03:42:38;15.90;99.90
52323;DHT22;38263;52.920;6.238;2023-06-10T03:47:36;15.90;99.90
52323;DHT22;38263;52.920;6.238;2023-06-10T03:50:06;15.70;99.90
52323;DHT22;38263;52.920;6.238;2023-06-10T03:54:58;15.70;99.90
52323;DHT22;38263;52.920;6.238;2023-06-10T05:30:02;19.40;99.90
52323;DHT22;38263;52.920;6.238;2023-06-10T05:37:24;20.20;99.90
52323;DHT22;38263;52.920;6.238;2023-06-10T05:42:15;20.40;99.90
52323;DHT22;38263;52.920;6.238;2023-06-10T05:44:41;20.70;99.90
52323;DHT22;38263;52.920;6.238;2023-06-10T05:47:07;21.00;99.90
52323;DHT22;38263;52.920;6.238;2023-06-10T05:49:32;21.20;99.90
52323;DHT22;38263;52.920;6.238;2023-06-10T05:51:58;21.10;99.90
52323;DHT22;38263;52.920;6.238;2023-06-10T05:54:25;21.70;99.90
52323;DHT22;38263;52.920;6.238;2023-06-10T05:56:51;21.70;99.90
52323;DHT22;38263;52.920;6.238;2023-06-10T05:59:16;24.50;99.90
52323;DHT22;38263;52.920;6.238;2023-06-10T06:01:42;23.00;99.90
52323;DHT22;38263;52.920;6.238;2023-06-10T06:04:07;22.90;99.90
52323;DHT22;38263;52.920;6.238;2023-06-10T06:06:34;23.40;99.90
52323;DHT22;38263;52.920;6.238;2023-06-10T06:09:00;23.50;99.90
52323;DHT22;38263;52.920;6.238;2023-06-10T06:11:25;23.70;99.90
52323;DHT22;38263;52.920;6.238;2023-06-10T06:13:51;23.90;99.90
52323;DHT22;38263;52.920;6.238;2023-06-10T06:16:35;25.30;99.90
52323;DHT22;38263;52.920;6.238;2023-06-10T06:19:08;25.30;99.90
52323;DHT22;38263;52.920;6.238;2023-06-10T06:21:35;23.60;99.90
52323;DHT22;38263;52.920;6.238;2023-06-10T06:24:00;25.30;99.90
52323;DHT22;38263;52.920;6.238;2023-06-10T06:26:26;24.00;99.90
52323;DHT22;38263;52.920;6.238;2023-06-10T06:28:52;24.20;99.90
52323;DHT22;38263;52.920;6.238;2023-06-10T06:31:17;24.50;99.90
52323;DHT22;38263;52.920;6.238;2023-06-10T06:33:43;24.60;99.90
52323;DHT22;38263;52.920;6.238;2023-06-10T06:36:08;24.60;99.90
52323;DHT22;38263;52.920;6.238;2023-06-10T06:38:34;24.40;99.90
52323;DHT22;38263;52.920;6.238;2023-06-10T06:41:00;23.70;99.90
52323;DHT22;38263;52.920;6.238;2023-06-10T06:43:29;22.60;99.90
52323;DHT22;38263;52.920;6.238;2023-06-10T06:45:56;22.20;99.90
52323;DHT22;38263;52.920;6.238;2023-06-10T06:48:21;21.70;99.90
52323;DHT22;38263;52.920;6.238;2023-06-10T06:53:13;21.40;99.90
52323;DHT22;38263;52.920;6.238;2023-06-10T06:55:38;21.20;99.90
52323;DHT22;38263;52.920;6.238;2023-06-10T06:58:04;21.10;99.90
52323;DHT22;38263;52.920;6.238;2023-06-10T07:00:30;20.90;99.90
52323;DHT22;38263;52.920;6.238;2023-06-10T07:05:23;20.70;99.90
52323;DHT22;38263;52.920;6.238;2023-06-10T07:10:21;20.60;99.90
52323;DHT22;38263;52.920;6.238;2023-06-10T07:20:05;20.80;99.90
52323;DHT22;38263;52.920;6.238;2023-06-10T07:29:50;20.40;99.90
52323;DHT22;38263;52.920;6.238;2023-06-10T07:39:34;20.80;99.90
52323;DHT22;38263;52.920;6.238;2023-06-10T07:44:26;20.80;99.90
52323;DHT22;38263;52.920;6.238;2023-06-10T07:54:10;21.00;99.90
52323;DHT22;38263;52.920;6.238;2023-06-10T08:01:29;21.10;99.90
52323;DHT22;38263;52.920;6.238;2023-06-10T08:13:40;21.20;99.90
52323;DHT22;38263;52.920;6.238;2023-06-10T08:28:18;20.80;99.90
52323;DHT22;38263;52.920;6.238;2023-06-10T08:38:02;21.70;99.90
52323;DHT22;38263;52.920;6.238;2023-06-10T08:43:05;21.70;99.90
52323;DHT22;38263;52.920;6.238;2023-06-10T08:45:31;21.80;99.90
52323;DHT22;38263;52.920;6.238;2023-06-10T08:47:57;21.90;99.90
52323;DHT22;38263;52.920;6.238;2023-06-10T08:50:25;21.80;99.90
52323;DHT22;38263;52.920;6.238;2023-06-10T08:52:54;22.10;99.90
52323;DHT22;38263;52.920;6.238;2023-06-10T08:55:30;22.10;99.90
52323;DHT22;38263;52.920;6.238;2023-06-10T08:57:58;22.20;99.90
52323;DHT22;38263;52.920;6.238;2023-06-10T09:00:25;22.20;99.90
52323;DHT22;38263;52.920;6.238;2023-06-10T09:02:51;22.40;99.90
52323;DHT22;38263;52.920;6.238;2023-06-10T09:05:17;22.40;99.90
52323;DHT22;38263;52.920;6.238;2023-06-10T09:07:45;22.30;99.90
52323;DHT22;38263;52.920;6.238;2023-06-10T09:10:11;22.40;99.90
52323;DHT22;38263;52.920;6.238;2023-06-10T09:15:04;22.40;99.90
52323;DHT22;38263;52.920;6.238;2023-06-10T09:17:30;22.40;99.90
52323;DHT22;38263;52.920;6.238;2023-06-10T09:19:56;22.40;99.90
52323;DHT22;38263;52.920;6.238;2023-06-10T09:22:22;22.50;99.90
52323;DHT22;38263;52.920;6.238;2023-06-10T09:24:48;22.50;99.90
52323;DHT22;38263;52.920;6.238;2023-06-10T09:27:14;22.60;99.90
52323;DHT22;38263;52.920;6.238;2023-06-10T09:32:13;22.60;99.90
52323;DHT22;38263;52.920;6.238;2023-06-10T09:34:39;22.80;99.90
52323;DHT22;38263;52.920;6.238;2023-06-10T09:37:05;22.80;99.90
52323;DHT22;38263;52.920;6.238;2023-06-10T09:39:31;22.90;99.90
52323;DHT22;38263;52.920;6.238;2023-06-10T09:41:57;23.00;99.90
52323;DHT22;38263;52.920;6.238;2023-06-10T09:44:22;23.00;99.90
52323;DHT22;38263;52.920;6.238;2023-06-10T09:46:50;22.90;99.90
52323;DHT22;38263;52.920;6.238;2023-06-10T09:49:20;23.10;99.90
52323;DHT22;38263;52.920;6.238;2023-06-10T09:51:53;23.10;99.90
52323;DHT22;38263;52.920;6.238;2023-06-10T09:54:19;22.90;99.90
52323;DHT22;38263;52.920;6.238;2023-06-10T09:56:51;23.00;99.90
52323;DHT22;38263;52.920;6.238;2023-06-10T09:59:28;22.90;99.90
52323;DHT22;38263;52.920;6.238;2023-06-10T10:01:55;23.10;99.90
52323;DHT22;38263;52.920;6.238;2023-06-10T10:04:25;23.10;99.90
52323;DHT22;38263;52.920;6.238;2023-06-10T10:06:51;23.30;99.90
52323;DHT22;38263;52.920;6.238;2023-06-10T10:09:17;23.40;99.90
52323;DHT22;38263;52.920;6.238;2023-06-10T10:11:43;23.30;99.90
52323;DHT22;38263;52.920;6.238;2023-06-10T10:14:10;23.60;99.90
52323;DHT22;38263;52.920;6.238;2023-06-10T10:16:37;23.30;99.90
52323;DHT22;38263;52.920;6.238;2023-06-10T10:19:32;23.60;99.90
52323;DHT22;38263;52.920;6.238;2023-06-10T10:22:06;23.60;99.90
52323;DHT22;38263;52.920;6.238;2023-06-10T10:24:38;23.60;99.90
52323;DHT22;38263;52.920;6.238;2023-06-10T10:27:17;23.90;99.90
52323;DHT22;38263;52.920;6.238;2023-06-10T10:29:46;23.90;99.90
52323;DHT22;38263;52.920;6.238;2023-06-10T10:32:13;23.80;99.90
52323;DHT22;38263;52.920;6.238;2023-06-10T10:34:53;23.80;99.90
52323;DHT22;38263;52.920;6.238;2023-06-10T10:37:21;23.70;99.90
52323;DHT22;38263;52.920;6.238;2023-06-10T10:39:48;24.20;99.90
52323;DHT22;38263;52.920;6.238;2023-06-10T10:42:14;23.90;99.90
52323;DHT22;38263;52.920;6.238;2023-06-10T10:44:40;24.20;99.90
52323;DHT22;38263;52.920;6.238;2023-06-10T10:47:10;25.50;99.90
52323;DHT22;38263;52.920;6.238;2023-06-10T10:49:37;25.50;99.90
52323;DHT22;38263;52.920;6.238;2023-06-10T10:52:04;25.20;99.90
52323;DHT22;38263;52.920;6.238;2023-06-10T10:54:36;24.40;99.90
52323;DHT22;38263;52.920;6.238;2023-06-10T10:57:09;24.30;99.90
52323;DHT22;38263;52.920;6.238;2023-06-10T10:59:54;26.30;99.90
52323;DHT22;38263;52.920;6.238;2023-06-10T11:02:40;24.80;99.90
52323;DHT22;38263;52.920;6.238;2023-06-10T11:05:07;25.80;99.90
52323;DHT22;38263;52.920;6.238;2023-06-10T11:07:34;24.70;99.90
52323;DHT22;38263;52.920;6.238;2023-06-10T11:10:10;26.80;99.90
52323;DHT22;38263;52.920;6.238;2023-06-10T11:13:05;24.70;99.90
52323;DHT22;38263;52.920;6.238;2023-06-10T11:15:33;25.70;99.90
52323;DHT22;38263;52.920;6.238;2023-06-10T11:18:27;24.90;99.90
52323;DHT22;38263;52.920;6.238;2023-06-10T11:20:56;24.90;99.90
52323;DHT22;38263;52.920;6.238;2023-06-10T11:31:33;24.90;99.90
52323;DHT22;38263;52.920;6.238;2023-06-10T11:34:03;25.30;99.90
52323;DHT22;38263;52.920;6.238;2023-06-10T11:36:31;26.70;99.90
52323;DHT22;38263;52.920;6.238;2023-06-10T11:39:02;25.30;99.90
52323;DHT22;38263;52.920;6.238;2023-06-10T11:41:30;27.30;99.90
52323;DHT22;38263;52.920;6.238;2023-06-10T11:43:57;26.50;99.90
52323;DHT22;38263;52.920;6.238;2023-06-10T11:46:26;25.50;99.90
52323;DHT22;38263;52.920;6.238;2023-06-10T11:48:56;25.10;99.90
52323;DHT22;38263;52.920;6.238;2023-06-10T11:51:25;25.10;99.90
52323;DHT22;38263;52.920;6.238;2023-06-10T11:53:52;26.70;99.90
52323;DHT22;38263;52.920;6.238;2023-06-10T11:56:22;27.20;99.90
52323;DHT22;38263;52.920;6.238;2023-06-10T11:59:02;25.10;99.90
52323;DHT22;38263;52.920;6.238;2023-06-10T12:01:31;25.40;99.90
52323;DHT22;38263;52.920;6.238;2023-06-10T12:04:02;26.50;99.90
52323;DHT22;38263;52.920;6.238;2023-06-10T12:06:44;25.50;99.90
52323;DHT22;38263;52.920;6.238;2023-06-10T12:09:23;25.50;99.90
52323;DHT22;38263;52.920;6.238;2023-06-10T12:12:03;25.40;99.90
52323;DHT22;38263;52.920;6.238;2023-06-10T12:14:57;26.80;99.90
52323;DHT22;38263;52.920;6.238;2023-06-10T12:17:43;25.50;99.90
52323;DHT22;38263;52.920;6.238;2023-06-10T12:20:35;26.60;99.90
52323;DHT22;38263;52.920;6.238;2023-06-10T12:23:09;25.40;99.90
52323;DHT22;38263;52.920;6.238;2023-06-10T12:25:34;25.60;99.90
52323;DHT22;38263;52.920;6.238;2023-06-10T12:28:02;27.20;99.90
52323;DHT22;38263;52.920;6.238;2023-06-10T12:30:28;25.80;99.90
52323;DHT22;38263;52.920;6.238;2023-06-10T12:32:55;25.30;99.90
52323;DHT22;38263;52.920;6.238;2023-06-10T12:35:22;28.00;99.90
52323;DHT22;38263;52.920;6.238;2023-06-10T12:40:34;25.50;99.90
52323;DHT22;38263;52.920;6.238;2023-06-10T12:43:01;25.70;99.90
52323;DHT22;38263;52.920;6.238;2023-06-10T12:45:38;25.70;99.90
52323;DHT22;38263;52.920;6.238;2023-06-10T12:48:19;25.90;99.90
52323;DHT22;38263;52.920;6.238;2023-06-10T12:50:50;25.80;99.90
52323;DHT22;38263;52.920;6.238;2023-06-10T12:53:16;28.10;99.90
52323;DHT22;38263;52.920;6.238;2023-06-10T12:55:42;25.90;99.90
52323;DHT22;38263;52.920;6.238;2023-06-10T12:58:10;25.80;99.90
52323;DHT22;38263;52.920;6.238;2023-06-10T13:00:36;25.90;99.90
52323;DHT22;38263;52.920;6.238;2023-06-10T13:03:03;27.30;99.90
52323;DHT22;38263;52.920;6.238;2023-06-10T13:05:31;27.60;99.90
52323;DHT22;38263;52.920;6.238;2023-06-10T13:07:57;27.90;99.90
52323;DHT22;38263;52.920;6.238;2023-06-10T13:10:23;25.90;99.90
52323;DHT22;38263;52.920;6.238;2023-06-10T13:12:50;25.80;99.90
52323;DHT22;38263;52.920;6.238;2023-06-10T13:15:16;25.80;99.90
52323;DHT22;38263;52.920;6.238;2023-06-10T13:17:45;25.60;99.90
52323;DHT22;38263;52.920;6.238;2023-06-10T13:20:15;26.20;99.90
52323;DHT22;38263;52.920;6.238;2023-06-10T13:22:41;26.00;99.90
52323;DHT22;38263;52.920;6.238;2023-06-10T13:25:08;28.30;99.90
52323;DHT22;38263;52.920;6.238;2023-06-10T13:27:34;26.00;99.90
52323;DHT22;38263;52.920;6.238;2023-06-10T13:30:00;28.80;99.90
52323;DHT22;38263;52.920;6.238;2023-06-10T13:32:26;28.40;99.90
52323;DHT22;38263;52.920;6.238;2023-06-10T13:34:51;28.30;99.90
52323;DHT22;38263;52.920;6.238;2023-06-10T13:37:18;26.20;99.90
52323;DHT22;38263;52.920;6.238;2023-06-10T13:39:45;26.60;99.90
52323;DHT22;38263;52.920;6.238;2023-06-10T13:42:14;27.80;99.90
52323;DHT22;38263;52.920;6.238;2023-06-10T13:44:40;28.40;99.90
52323;DHT22;38263;52.920;6.238;2023-06-10T13:47:06;27.10;99.90
52323;DHT22;38263;52.920;6.238;2023-06-10T13:49:32;26.40;99.90
52323;DHT22;38263;52.920;6.238;2023-06-10T13:51:57;26.20;99.90
52323;DHT22;38263;52.920;6.238;2023-06-10T13:54:23;28.50;99.90
52323;DHT22;38263;52.920;6.238;2023-06-10T13:56:49;26.90;99.90
52323;DHT22;38263;52.920;6.238;2023-06-10T13:59:14;27.80;99.90
52323;DHT22;38263;52.920;6.238;2023-06-10T14:01:40;28.60;99.90
52323;DHT22;38263;52.920;6.238;2023-06-10T14:04:06;29.00;99.90
52323;DHT22;38263;52.920;6.238;2023-06-10T14:06:32;27.80;99.90
52323;DHT22;38263;52.920;6.238;2023-06-10T14:08:59;27.80;99.90
52323;DHT22;38263;52.920;6.238;2023-06-10T14:11:25;28.30;99.90
52323;DHT22;38263;52.920;6.238;2023-06-10T14:13:50;28.50;99.90
52323;DHT22;38263;52.920;6.238;2023-06-10T14:16:16;25.50;99.90
52323;DHT22;38263;52.920;6.238;2023-06-10T14:18:42;27.50;99.90
52323;DHT22;38263;52.920;6.238;2023-06-10T14:21:07;25.30;99.90
52323;DHT22;38263;52.920;6.238;2023-06-10T14:23:33;26.00;99.90
52323;DHT22;38263;52.920;6.238;2023-06-10T14:25:59;28.60;99.90
52323;DHT22;38263;52.920;6.238;2023-06-10T14:28:24;28.70;99.90
52323;DHT22;38263;52.920;6.238;2023-06-10T14:30:52;28.90;99.90
52323;DHT22;38263;52.920;6.238;2023-06-10T14:33:18;25.70;99.90
52323;DHT22;38263;52.920;6.238;2023-06-10T14:35:43;26.00;99.90
52323;DHT22;38263;52.920;6.238;2023-06-10T14:38:09;26.20;99.90
52323;DHT22;38263;52.920;6.238;2023-06-10T14:40:35;26.10;99.90
52323;DHT22;38263;52.920;6.238;2023-06-10T14:43:00;26.90;99.90
52323;DHT22;38263;52.920;6.238;2023-06-10T14:45:29;26.10;99.90
52323;DHT22;38263;52.920;6.238;2023-06-10T14:47:55;26.20;99.90
52323;DHT22;38263;52.920;6.238;2023-06-10T14:50:20;26.40;99.90
52323;DHT22;38263;52.920;6.238;2023-06-10T14:52:46;26.10;99.90
52323;DHT22;38263;52.920;6.238;2023-06-10T14:55:11;26.10;99.90
52323;DHT22;38263;52.920;6.238;2023-06-10T14:57:37;26.20;99.90
52323;DHT22;38263;52.920;6.238;2023-06-10T15:00:03;26.20;99.90
52323;DHT22;38263;52.920;6.238;2023-06-10T15:02:29;26.00;99.90
52323;DHT22;38263;52.920;6.238;2023-06-10T15:04:54;25.70;99.90
52323;DHT22;38263;52.920;6.238;2023-06-10T15:07:20;25.80;99.90
52323;DHT22;38263;52.920;6.238;2023-06-10T15:09:45;26.10;99.90
52323;DHT22;38263;52.920;6.238;2023-06-10T15:12:11;28.70;99.90
52323;DHT22;38263;52.920;6.238;2023-06-10T15:14:36;26.10;99.90
52323;DHT22;38263;52.920;6.238;2023-06-10T15:17:02;28.50;99.90
52323;DHT22;38263;52.920;6.238;2023-06-10T15:19:28;26.20;99.90
52323;DHT22;38263;52.920;6.238;2023-06-10T15:21:54;26.10;99.90
52323;DHT22;38263;52.920;6.238;2023-06-10T15:24:19;26.80;99.90
52323;DHT22;38263;52.920;6.238;2023-06-10T15:26:45;26.10;99.90
52323;DHT22;38263;52.920;6.238;2023-06-10T15:29:10;27.70;99.90
52323;DHT22;38263;52.920;6.238;2023-06-10T15:31:37;26.30;99.90
52323;DHT22;38263;52.920;6.238;2023-06-10T15:34:03;26.60;99.90
52323;DHT22;38263;52.920;6.238;2023-06-10T15:36:29;26.20;99.90
52323;DHT22;38263;52.920;6.238;2023-06-10T15:39:01;26.20;99.90
52323;DHT22;38263;52.920;6.238;2023-06-10T15:41:27;28.60;99.90
52323;DHT22;38263;52.920;6.238;2023-06-10T15:43:53;26.50;99.90
52323;DHT22;38263;52.920;6.238;2023-06-10T15:46:18;26.50;99.90
52323;DHT22;38263;52.920;6.238;2023-06-10T15:48:44;26.20;99.90
52323;DHT22;38263;52.920;6.238;2023-06-10T15:51:10;26.20;99.90
52323;DHT22;38263;52.920;6.238;2023-06-10T15:53:35;26.10;99.90
52323;DHT22;38263;52.920;6.238;2023-06-10T15:56:01;26.00;99.90
52323;DHT22;38263;52.920;6.238;2023-06-10T15:58:28;28.40;99.90
52323;DHT22;38263;52.920;6.238;2023-06-10T16:00:53;26.40;99.90
52323;DHT22;38263;52.920;6.238;2023-06-10T16:03:19;28.30;99.90
52323;DHT22;38263;52.920;6.238;2023-06-10T16:05:45;26.10;99.90
52323;DHT22;38263;52.920;6.238;2023-06-10T16:08:10;26.20;99.90
52323;DHT22;38263;52.920;6.238;2023-06-10T16:10:36;28.20;99.90
52323;DHT22;38263;52.920;6.238;2023-06-10T16:13:01;26.10;99.90
52323;DHT22;38263;52.920;6.238;2023-06-10T16:15:28;27.80;99.90
52323;DHT22;38263;52.920;6.238;2023-06-10T16:17:53;26.20;99.90
52323;DHT22;38263;52.920;6.238;2023-06-10T16:20:20;26.10;99.90
52323;DHT22;38263;52.920;6.238;2023-06-10T16:22:46;26.10;99.90
52323;DHT22;38263;52.920;6.238;2023-06-10T16:25:12;26.00;99.90
52323;DHT22;38263;52.920;6.238;2023-06-10T16:27:38;26.20;99.90
52323;DHT22;38263;52.920;6.238;2023-06-10T16:30:04;26.20;99.90
52323;DHT22;38263;52.920;6.238;2023-06-10T16:32:30;26.00;99.90
52323;DHT22;38263;52.920;6.238;2023-06-10T16:34:56;26.20;99.90
52323;DHT22;38263;52.920;6.238;2023-06-10T16:37:21;25.90;99.90
52323;DHT22;38263;52.920;6.238;2023-06-10T16:39:47;26.10;99.90
52323;DHT22;38263;52.920;6.238;2023-06-10T16:42:13;25.70;99.90
52323;DHT22;38263;52.920;6.238;2023-06-10T16:44:38;27.30;99.90
52323;DHT22;38263;52.920;6.238;2023-06-10T16:47:04;26.10;99.90
52323;DHT22;38263;52.920;6.238;2023-06-10T16:49:30;26.20;99.90
52323;DHT22;38263;52.920;6.238;2023-06-10T16:51:55;28.00;99.90
52323;DHT22;38263;52.920;6.238;2023-06-10T16:54:21;28.20;99.90
52323;DHT22;38263;52.920;6.238;2023-06-10T16:56:47;26.20;99.90
52323;DHT22;38263;52.920;6.238;2023-06-10T16:59:12;25.80;99.90
52323;DHT22;38263;52.920;6.238;2023-06-10T17:01:38;28.30;99.90
52323;DHT22;38263;52.920;6.238;2023-06-10T17:04:04;25.80;99.90
52323;DHT22;38263;52.920;6.238;2023-06-10T17:06:29;25.90;99.90
52323;DHT22;38263;52.920;6.238;2023-06-10T17:08:55;25.90;99.90
52323;DHT22;38263;52.920;6.238;2023-06-10T17:11:21;25.70;99.90
52323;DHT22;38263;52.920;6.238;2023-06-10T17:13:47;25.60;99.90
52323;DHT22;38263;52.920;6.238;2023-06-10T17:16:12;25.80;99.90
52323;DHT22;38263;52.920;6.238;2023-06-10T17:18:38;25.50;99.90
52323;DHT22;38263;52.920;6.238;2023-06-10T17:21:03;26.60;99.90
52323;DHT22;38263;52.920;6.238;2023-06-10T17:23:29;25.80;99.90
52323;DHT22;38263;52.920;6.238;2023-06-10T17:25:55;27.30;99.90
52323;DHT22;38263;52.920;6.238;2023-06-10T17:28:20;27.70;99.90
52323;DHT22;38263;52.920;6.238;2023-06-10T17:30:46;25.50;99.90
52323;DHT22;38263;52.920;6.238;2023-06-10T17:33:12;27.50;99.90
52323;DHT22;38263;52.920;6.238;2023-06-10T17:35:40;25.50;99.90
52323;DHT22;38263;52.920;6.238;2023-06-10T17:38:06;25.80;99.90
52323;DHT22;38263;52.920;6.238;2023-06-10T17:40:32;26.90;99.90
52323;DHT22;38263;52.920;6.238;2023-06-10T17:42:57;25.70;99.90
52323;DHT22;38263;52.920;6.238;2023-06-10T17:45:23;25.60;99.90
52323;DHT22;38263;52.920;6.238;2023-06-10T17:47:49;25.60;99.90
52323;DHT22;38263;52.920;6.238;2023-06-10T17:50:14;25.50;99.90
52323;DHT22;38263;52.920;6.238;2023-06-10T17:52:40;25.70;99.90
52323;DHT22;38263;52.920;6.238;2023-06-10T17:55:05;25.50;99.90
52323;DHT22;38263;52.920;6.238;2023-06-10T17:57:31;25.60;99.90
52323;DHT22;38263;52.920;6.238;2023-06-10T17:59:57;25.30;99.90
52323;DHT22;38263;52.920;6.238;2023-06-10T18:02:23;25.40;99.90
52323;DHT22;38263;52.920;6.238;2023-06-10T18:04:49;25.30;99.90
52323;DHT22;38263;52.920;6.238;2023-06-10T18:07:14;25.80;99.90
52323;DHT22;38263;52.920;6.238;2023-06-10T18:09:40;25.30;99.90
52323;DHT22;38263;52.920;6.238;2023-06-10T18:12:06;27.30;99.90
52323;DHT22;38263;52.920;6.238;2023-06-10T18:14:32;25.40;99.90
52323;DHT22;38263;52.920;6.238;2023-06-10T18:16:57;25.10;99.90
52323;DHT22;38263;52.920;6.238;2023-06-10T18:19:23;26.90;99.90
52323;DHT22;38263;52.920;6.238;2023-06-10T18:25:18;25.10;99.90
52323;DHT22;38263;52.920;6.238;2023-06-10T18:28:32;25.00;99.90
52323;DHT22;38263;52.920;6.238;2023-06-10T18:32:12;24.80;99.90
52323;DHT22;38263;52.920;6.238;2023-06-10T18:35:10;24.70;99.90
52323;DHT22;38263;52.920;6.238;2023-06-10T18:38:38;24.60;99.90
52323;DHT22;38263;52.920;6.238;2023-06-10T18:41:13;26.40;99.90
52323;DHT22;38263;52.920;6.238;2023-06-10T18:43:49;24.40;99.90
52323;DHT22;38263;52.920;6.238;2023-06-10T18:47:00;24.70;99.90
52323;DHT22;38263;52.920;6.238;2023-06-10T18:49:43;25.80;99.90
52323;DHT22;38263;52.920;6.238;2023-06-10T18:52:53;25.30;99.90
52323;DHT22;38263;52.920;6.238;2023-06-10T18:59:53;25.10;99.90
52323;DHT22;38263;52.920;6.238;2023-06-10T19:02:19;23.50;99.90
52323;DHT22;38263;52.920;6.238;2023-06-10T19:04:44;23.70;99.90
52323;DHT22;38263;52.920;6.238;2023-06-10T19:07:10;23.80;99.90
52323;DHT22;38263;52.920;6.238;2023-06-10T19:09:36;24.10;99.90
52323;DHT22;38263;52.920;6.238;2023-06-10T19:12:01;23.60;99.90
52323;DHT22;38263;52.920;6.238;2023-06-10T19:14:27;23.90;99.90
52323;DHT22;38263;52.920;6.238;2023-06-10T19:16:52;23.70;99.90
52323;DHT22;38263;52.920;6.238;2023-06-10T19:19:18;23.80;99.90
52323;DHT22;38263;52.920;6.238;2023-06-10T19:21:43;23.80;99.90
52323;DHT22;38263;52.920;6.238;2023-06-10T19:24:09;23.40;99.90
52323;DHT22;38263;52.920;6.238;2023-06-10T19:26:34;23.50;99.90
52323;DHT22;38263;52.920;6.238;2023-06-10T19:29:00;23.40;99.90
52323;DHT22;38263;52.920;6.238;2023-06-10T19:31:26;23.00;99.90
52323;DHT22;38263;52.920;6.238;2023-06-10T19:33:52;23.40;99.90
52323;DHT22;38263;52.920;6.238;2023-06-10T19:36:17;24.90;99.90
52323;DHT22;38263;52.920;6.238;2023-06-10T19:38:43;23.30;99.90
52323;DHT22;38263;52.920;6.238;2023-06-10T19:41:08;23.10;99.90
52323;DHT22;38263;52.920;6.238;2023-06-10T19:43:34;22.90;99.90
52323;DHT22;38263;52.920;6.238;2023-06-10T19:45:59;23.00;99.90
52323;DHT22;38263;52.920;6.238;2023-06-10T19:48:25;23.10;99.90
52323;DHT22;38263;52.920;6.238;2023-06-10T19:50:51;22.80;99.90
52323;DHT22;38263;52.920;6.238;2023-06-10T19:53:19;22.80;99.90
52323;DHT22;38263;52.920;6.238;2023-06-10T19:55:47;22.80;99.90
52323;DHT22;38263;52.920;6.238;2023-06-10T20:05:31;22.50;99.90
52323;DHT22;38263;52.920;6.238;2023-06-10T20:07:58;22.50;99.90
52323;DHT22;38263;52.920;6.238;2023-06-10T20:10:24;22.40;99.90
52323;DHT22;38263;52.920;6.238;2023-06-10T20:20:10;22.20;99.90
52323;DHT22;38263;52.920;6.238;2023-06-10T20:25:03;22.10;99.90
52323;DHT22;38263;52.920;6.238;2023-06-10T20:37:13;21.70;99.90
52323;DHT22;38263;52.920;6.238;2023-06-10T20:39:39;21.80;99.90
52323;DHT22;38263;52.920;6.238;2023-06-10T20:56:41;21.50;99.90
52323;DHT22;38263;52.920;6.238;2023-06-10T21:38:07;20.90;99.90
52323;DHT22;38263;52.920;6.238;2023-06-10T22:09:49;20.30;99.90
52323;DHT22;38263;52.920;6.238;2023-06-10T22:12:16;20.40;99.90
52323;DHT22;38263;52.920;6.238;2023-06-10T22:22:05;20.10;99.90
52323;DHT22;38263;52.920;6.238;2023-06-10T22:53:48;19.90;99.90
52323;DHT22;38263;52.920;6.238;2023-06-10T22:56:13;19.90;99.90
52323;DHT22;38263;52.920;6.238;2023-06-10T23:05:57;19.80;99.90
52323;DHT22;38263;52.920;6.238;2023-06-10T23:08:23;19.70;99.90
52323;DHT22;38263;52.920;6.238;2023-06-10T23:10:48;19.90;99.90
52323;DHT22;38263;52.920;6.238;2023-06-10T23:25:27;19.60;99.90
52323;DHT22;38263;52.920;6.238;2023-06-10T23:27:53;19.80;99.90
52323;DHT22;38263;52.920;6.238;2023-06-10T23:32:45;19.60;99.90
52323;DHT22;38263;52.920;6.238;2023-06-10T23:37:37;19.60;99.90
52323;DHT22;38263;52.920;6.238;2023-06-10T23:40:04;19.60;99.90
52323;DHT22;38263;52.920;6.238;2023-06-10T23:44:58;19.50;99.90
52323;DHT22;38263;52.920;6.238;2023-06-10T23:47:24;19.30;99.90
52323;DHT22;38263;52.920;6.238;2023-06-10T23:59:33;19.20;99.90
